createdAt,value
2022-09-03T00:00:38.986Z,5.4
2022-09-03T00:01:42.660Z,6.1
2022-09-03T00:02:46.944Z,6.4
2022-09-03T00:03:46.844Z,6.8
2022-09-03T00:04:43.889Z,6.4
2022-09-03T00:05:42.581Z,5.3
2022-09-03T00:06:44.433Z,6.3
2022-09-03T00:07:46.907Z,7.1
2022-09-03T00:08:43.570Z,7.1
2022-09-03T00:09:42.570Z,6.5
2022-09-03T00:10:53.986Z,6.8
2022-09-03T00:11:44.401Z,6.3
2022-09-03T00:12:43.593Z,6.3
2022-09-03T00:13:43.870Z,6.1
2022-09-03T00:14:41.673Z,5.2
2022-09-03T00:15:39.810Z,6.4
2022-09-03T00:16:43.935Z,5.4
2022-09-03T00:17:44.275Z,6.3
2022-09-03T00:18:52.878Z,6.5
2022-09-03T00:19:42.774Z,6.2
2022-09-03T00:20:41.132Z,5.9
2022-09-03T00:21:43.156Z,5.7
2022-09-03T00:22:42.072Z,6.2
2022-09-03T00:23:40.459Z,6.9
2022-09-03T00:24:40.921Z,5.9
2022-09-03T00:25:46.217Z,5.9
2022-09-03T00:26:41.521Z,6.1
2022-09-03T00:27:40.946Z,6.2
2022-09-03T00:28:53.385Z,6.6
2022-09-03T00:29:42.349Z,5.8
2022-09-03T00:30:40.508Z,6.3
2022-09-03T00:31:45.026Z,7.2
2022-09-03T00:32:41.521Z,6.0
2022-09-03T00:33:40.337Z,5.4
2022-09-03T00:34:40.897Z,6.7
2022-09-03T00:35:45.759Z,5.6
2022-09-03T00:36:44.189Z,6.1
2022-09-03T00:37:39.318Z,5.2
2022-09-03T00:38:39.140Z,5.4
2022-09-03T00:39:39.062Z,6.1
2022-09-03T00:40:53.394Z,5.8
2022-09-03T00:41:59.426Z,5.9
2022-09-03T00:42:44.233Z,5.8
2022-09-03T00:43:57.310Z,5.2
2022-09-03T00:44:49.396Z,5.8
2022-09-03T00:45:53.409Z,6.5
2022-09-03T00:46:53.417Z,5.4
2022-09-03T00:47:55.920Z,5.4
2022-09-03T00:48:46.886Z,6.0
2022-09-03T00:49:46.388Z,5.9
2022-09-03T00:50:57.823Z,5.3
2022-09-03T00:51:44.435Z,5.4
2022-09-03T00:52:45.428Z,5.3
2022-09-03T00:53:52.908Z,5.2
2022-09-03T00:54:56.847Z,5.2
2022-09-03T00:55:53.391Z,4.2
2022-09-03T00:56:46.930Z,5.4
2022-09-03T00:57:55.906Z,5.5
2022-09-03T00:58:46.903Z,5.6
2022-09-03T00:59:52.154Z,6.5
2022-09-03T01:00:41.588Z,6.0
2022-09-03T01:01:53.167Z,5.9
2022-09-03T01:02:55.932Z,5.3
2022-09-03T01:03:49.907Z,5.4
2022-09-03T01:04:55.435Z,6.1
2022-09-03T01:05:47.432Z,5.6
2022-09-03T01:06:57.379Z,4.8
2022-09-03T01:07:58.919Z,5.5
2022-09-03T01:08:44.058Z,5.6
2022-09-03T01:09:43.850Z,5.4
2022-09-03T01:10:50.523Z,6.0
2022-09-03T01:11:55.921Z,5.4
2022-09-03T01:12:49.915Z,4.8
2022-09-03T01:13:41.847Z,4.6
2022-09-03T01:14:58.400Z,5.7
2022-09-03T01:16:02.000Z,6.0
2022-09-03T01:16:52.190Z,5.7
2022-09-03T01:17:43.836Z,5.1
2022-09-03T01:18:53.407Z,4.8
2022-09-03T01:19:52.942Z,5.1
2022-09-03T01:20:52.922Z,5.1
2022-09-03T01:21:55.427Z,5.1
2022-09-03T01:22:55.464Z,4.5
2022-09-03T01:23:57.871Z,5.1
2022-09-03T01:24:44.286Z,4.6
2022-09-03T01:25:46.934Z,5.0
2022-09-03T01:26:43.929Z,5.6
2022-09-03T01:28:00.741Z,4.3
2022-09-03T01:28:44.443Z,4.5
2022-09-03T01:29:44.261Z,4.7
2022-09-03T01:30:41.217Z,5.6
2022-09-03T01:31:43.882Z,5.3
2022-09-03T01:32:47.420Z,4.9
2022-09-03T01:33:47.483Z,5.2
2022-09-03T01:34:46.954Z,5.3
2022-09-03T01:35:46.911Z,5.5
2022-09-03T01:36:52.920Z,5.1
2022-09-03T01:37:46.441Z,4.6
2022-09-03T01:38:46.973Z,5.2
2022-09-03T01:39:47.061Z,5.2
2022-09-03T01:40:44.082Z,4.6
2022-09-03T01:41:46.413Z,4.6
2022-09-03T01:42:44.634Z,4.6
2022-09-03T01:43:45.538Z,5.5
2022-09-03T01:44:44.268Z,5.3
2022-09-03T01:45:51.068Z,4.6
2022-09-03T01:46:40.074Z,5.1
2022-09-03T01:47:43.877Z,5.4
2022-09-03T01:48:41.661Z,4.9
2022-09-03T01:49:44.194Z,4.1
2022-09-03T01:50:44.900Z,4.4
2022-09-03T01:51:39.022Z,5.0
2022-09-03T01:52:50.422Z,4.3
2022-09-03T01:53:57.847Z,5.1
2022-09-03T01:54:52.936Z,5.5
2022-09-03T01:55:44.098Z,4.5
2022-09-03T01:56:46.944Z,4.9
2022-09-03T01:57:43.763Z,5.0
2022-09-03T01:58:51.549Z,5.6
2022-09-03T01:59:44.282Z,4.4
2022-09-03T02:00:40.502Z,4.6
2022-09-03T02:01:44.053Z,4.7
2022-09-03T02:02:39.897Z,4.4
2022-09-03T02:03:41.537Z,4.7
2022-09-03T02:04:39.476Z,5.0
2022-09-03T02:05:39.294Z,3.9
2022-09-03T02:06:39.247Z,4.5
2022-09-03T02:07:40.295Z,5.2
2022-09-03T02:08:39.637Z,5.0
2022-09-03T02:09:39.422Z,4.9
2022-09-03T02:10:44.440Z,5.3
2022-09-03T02:11:39.685Z,4.5
2022-09-03T02:12:40.782Z,4.1
2022-09-03T02:13:44.575Z,5.5
2022-09-03T02:14:39.292Z,4.3
2022-09-03T02:15:45.951Z,4.5
2022-09-03T02:16:39.517Z,4.0
2022-09-03T02:17:41.294Z,4.2
2022-09-03T02:18:44.024Z,4.8
2022-09-03T02:19:39.031Z,4.0
2022-09-03T02:20:40.455Z,4.0
2022-09-03T02:21:41.638Z,4.3
2022-09-03T02:22:39.629Z,5.4
2022-09-03T02:23:39.896Z,4.7
2022-09-03T02:24:39.003Z,4.8
2022-09-03T02:25:43.580Z,5.0
2022-09-03T02:26:39.530Z,4.4
2022-09-03T02:27:39.888Z,4.4
2022-09-03T02:28:39.161Z,4.6
2022-09-03T02:29:39.049Z,3.9
2022-09-03T02:30:40.465Z,3.4
2022-09-03T02:31:39.561Z,4.4
2022-09-03T02:32:39.326Z,4.6
2022-09-03T02:33:41.521Z,5.2
2022-09-03T02:34:39.057Z,4.5
2022-09-03T02:35:40.421Z,3.2
2022-09-03T02:36:41.492Z,4.3
2022-09-03T02:37:39.383Z,4.4
2022-09-03T02:38:42.255Z,3.9
2022-09-03T02:39:39.461Z,3.7
2022-09-03T02:40:38.916Z,4.2
2022-09-03T02:41:39.758Z,4.2
2022-09-03T02:42:39.328Z,3.6
2022-09-03T02:43:41.525Z,4.1
2022-09-03T02:44:44.059Z,3.8
2022-09-03T02:45:45.812Z,4.5
2022-09-03T02:46:44.063Z,3.7
2022-09-03T02:47:41.616Z,4.1
2022-09-03T02:48:39.242Z,3.5
2022-09-03T02:49:39.044Z,3.8
2022-09-03T02:50:42.254Z,4.1
2022-09-03T02:51:40.580Z,4.3
2022-09-03T02:52:39.351Z,4.4
2022-09-03T02:53:39.318Z,3.9
2022-09-03T02:54:39.053Z,4.1
2022-09-03T02:55:39.731Z,4.2
2022-09-03T02:56:39.867Z,4.9
2022-09-03T02:57:39.405Z,4.2
2022-09-03T02:58:39.178Z,4.6
2022-09-03T02:59:39.213Z,4.2
2022-09-03T03:00:38.832Z,3.6
2022-09-03T03:01:39.544Z,3.9
2022-09-03T03:02:39.523Z,5.3
2022-09-03T03:03:39.207Z,5.1
2022-09-03T03:04:39.122Z,4.3
2022-09-03T03:05:49.570Z,4.2
2022-09-03T03:06:39.628Z,3.5
2022-09-03T03:07:39.911Z,4.3
2022-09-03T03:08:39.577Z,4.9
2022-09-03T03:09:39.022Z,3.9
2022-09-03T03:10:38.823Z,3.9
2022-09-03T03:11:39.515Z,3.9
2022-09-03T03:12:39.390Z,4.3
2022-09-03T03:13:39.137Z,3.8
2022-09-03T03:14:38.980Z,4.0
2022-09-03T03:15:39.709Z,4.3
2022-09-03T03:16:39.207Z,4.0
2022-09-03T03:17:38.923Z,4.4
2022-09-03T03:18:39.561Z,4.6
2022-09-03T03:19:39.370Z,3.7
2022-09-03T03:20:39.716Z,4.1
2022-09-03T03:21:39.062Z,5.2
2022-09-03T03:22:38.961Z,5.2
2022-09-03T03:23:39.545Z,3.6
2022-09-03T03:24:39.315Z,4.1
2022-09-03T03:25:39.217Z,4.2
2022-09-03T03:26:39.011Z,4.3
2022-09-03T03:27:39.749Z,4.1
2022-09-03T03:28:39.493Z,3.1
2022-09-03T03:29:39.345Z,4.1
2022-09-03T03:30:39.745Z,3.7
2022-09-03T03:31:38.965Z,3.3
2022-09-03T03:32:39.715Z,3.7
2022-09-03T03:33:39.760Z,4.1
2022-09-03T03:34:39.213Z,4.3
2022-09-03T03:35:39.064Z,3.9
2022-09-03T03:36:39.762Z,4.2
2022-09-03T03:37:39.714Z,4.1
2022-09-03T03:38:40.320Z,3.8
2022-09-03T03:39:39.233Z,3.5
2022-09-03T03:40:39.124Z,3.3
2022-09-03T03:41:38.824Z,3.1
2022-09-03T03:42:39.516Z,3.6
2022-09-03T03:43:39.348Z,4.5
2022-09-03T03:44:39.165Z,4.5
2022-09-03T03:45:39.012Z,3.6
2022-09-03T03:46:40.327Z,2.8
2022-09-03T03:47:39.486Z,3.5
2022-09-03T03:48:39.705Z,3.5
2022-09-03T03:49:39.135Z,3.2
2022-09-03T03:50:38.962Z,4.3
2022-09-03T03:51:39.569Z,3.7
2022-09-03T03:52:39.436Z,2.8
2022-09-03T03:53:39.399Z,3.6
2022-09-03T03:54:39.057Z,3.9
2022-09-03T03:55:38.883Z,3.5
2022-09-03T03:56:39.583Z,3.6
2022-09-03T03:57:39.382Z,3.8
2022-09-03T03:58:39.674Z,2.9
2022-09-03T03:59:39.032Z,3.9
2022-09-03T04:00:39.731Z,3.7
2022-09-03T04:01:39.543Z,2.8
2022-09-03T04:02:39.423Z,3.7
2022-09-03T04:03:39.387Z,3.4
2022-09-03T04:04:39.236Z,3.7
2022-09-03T04:05:46.115Z,3.7
2022-09-03T04:06:39.495Z,4.3
2022-09-03T04:07:39.314Z,4.0
2022-09-03T04:08:40.372Z,2.7
2022-09-03T04:09:39.048Z,3.1
2022-09-03T04:10:39.610Z,3.4
2022-09-03T04:11:39.381Z,3.6
2022-09-03T04:12:39.228Z,3.5
2022-09-03T04:13:40.347Z,3.8
2022-09-03T04:14:38.894Z,4.3
2022-09-03T04:15:39.600Z,4.2
2022-09-03T04:16:39.546Z,4.0
2022-09-03T04:17:39.209Z,2.5
2022-09-03T04:18:39.254Z,3.7
2022-09-03T04:19:38.943Z,4.3
2022-09-03T04:20:39.561Z,3.0
2022-09-03T04:21:39.389Z,3.9
2022-09-03T04:22:39.185Z,3.5
2022-09-03T04:23:40.189Z,3.2
2022-09-03T04:24:39.811Z,4.0
2022-09-03T04:25:39.538Z,3.1
2022-09-03T04:26:39.348Z,3.4
2022-09-03T04:27:39.171Z,2.9
2022-09-03T04:28:39.126Z,3.3
2022-09-03T04:29:39.679Z,3.7
2022-09-03T04:30:39.562Z,3.9
2022-09-03T04:31:39.274Z,2.7
2022-09-03T04:32:39.108Z,3.3
2022-09-03T04:33:39.007Z,3.2
2022-09-03T04:34:39.659Z,3.3
2022-09-03T04:35:39.484Z,4.0
2022-09-03T04:36:39.317Z,3.2
2022-09-03T04:37:39.161Z,3.4
2022-09-03T04:38:39.908Z,3.0
2022-09-03T04:39:39.626Z,3.4
2022-09-03T04:40:39.414Z,3.6
2022-09-03T04:41:39.244Z,3.7
2022-09-03T04:42:39.043Z,3.5
2022-09-03T04:43:39.353Z,3.4
2022-09-03T04:44:39.601Z,3.3
2022-09-03T04:45:39.506Z,3.0
2022-09-03T04:46:39.274Z,3.2
2022-09-03T04:47:39.059Z,3.6
2022-09-03T04:48:39.348Z,3.2
2022-09-03T04:49:39.549Z,3.9
2022-09-03T04:50:39.382Z,3.5
2022-09-03T04:51:39.232Z,3.9
2022-09-03T04:52:39.059Z,3.7
2022-09-03T04:53:40.980Z,3.1
2022-09-03T04:54:39.580Z,3.5
2022-09-03T04:55:39.447Z,3.2
2022-09-03T04:56:39.272Z,3.6
2022-09-03T04:57:39.058Z,3.2
2022-09-03T04:58:39.203Z,2.6
2022-09-03T04:59:39.534Z,2.7
2022-09-03T05:00:39.566Z,3.1
2022-09-03T05:01:40.344Z,3.4
2022-09-03T05:02:39.123Z,3.0
2022-09-03T05:03:39.775Z,3.5
2022-09-03T05:04:39.525Z,2.7
2022-09-03T05:05:39.370Z,3.2
2022-09-03T05:06:39.263Z,3.6
2022-09-03T05:07:39.826Z,2.8
2022-09-03T05:08:39.649Z,3.2
2022-09-03T05:09:39.472Z,3.1
2022-09-03T05:10:39.315Z,2.9
2022-09-03T05:11:39.176Z,1.8
2022-09-03T05:12:39.066Z,3.7
2022-09-03T05:13:39.663Z,3.3
2022-09-03T05:14:39.499Z,2.2
2022-09-03T05:15:39.395Z,2.2
2022-09-03T05:16:39.161Z,2.6
2022-09-03T05:17:39.285Z,3.5
2022-09-03T05:18:39.698Z,2.8
2022-09-03T05:19:39.381Z,3.0
2022-09-03T05:20:39.186Z,3.0
2022-09-03T05:21:39.016Z,3.0
2022-09-03T05:22:39.770Z,2.3
2022-09-03T05:23:43.406Z,3.4
2022-09-03T05:24:39.342Z,2.9
2022-09-03T05:25:39.561Z,3.3
2022-09-03T05:26:39.450Z,3.1
2022-09-03T05:27:39.293Z,3.3
2022-09-03T05:28:40.155Z,3.8
2022-09-03T05:29:39.434Z,3.4
2022-09-03T05:30:39.089Z,2.7
2022-09-03T05:31:39.053Z,3.4
2022-09-03T05:32:39.632Z,3.5
2022-09-03T05:33:40.329Z,3.4
2022-09-03T05:34:39.189Z,3.0
2022-09-03T05:35:39.046Z,3.2
2022-09-03T05:36:38.849Z,3.5
2022-09-03T05:37:39.594Z,2.3
2022-09-03T05:38:39.677Z,3.3
2022-09-03T05:39:39.298Z,3.2
2022-09-03T05:40:39.050Z,2.7
2022-09-03T05:41:38.844Z,3.0
2022-09-03T05:42:39.499Z,2.5
2022-09-03T05:43:39.756Z,2.9
2022-09-03T05:44:39.167Z,3.2
2022-09-03T05:45:39.054Z,3.2
2022-09-03T05:46:39.699Z,2.9
2022-09-03T05:47:39.507Z,3.1
2022-09-03T05:48:39.496Z,2.8
2022-09-03T05:49:39.184Z,2.9
2022-09-03T05:50:38.977Z,2.9
2022-09-03T05:51:39.658Z,2.4
2022-09-03T05:52:39.454Z,2.8
2022-09-03T05:53:39.704Z,2.5
2022-09-03T05:54:39.131Z,2.4
2022-09-03T05:55:38.936Z,2.6
2022-09-03T05:56:39.771Z,2.8
2022-09-03T05:57:39.437Z,2.5
2022-09-03T05:58:40.146Z,2.7
2022-09-03T05:59:39.133Z,2.8
2022-09-03T06:00:38.937Z,2.9
2022-09-03T06:01:51.517Z,3.4
2022-09-03T06:02:39.506Z,3.3
2022-09-03T06:03:40.025Z,2.6
2022-09-03T06:04:39.058Z,3.4
2022-09-03T06:05:44.631Z,2.9
2022-09-03T06:06:43.277Z,3.2
2022-09-03T06:07:39.357Z,3.0
2022-09-03T06:08:39.903Z,3.1
2022-09-03T06:09:39.127Z,2.6
2022-09-03T06:10:41.115Z,2.8
2022-09-03T06:11:40.103Z,3.2
2022-09-03T06:12:39.303Z,2.6
2022-09-03T06:13:39.156Z,3.3
2022-09-03T06:14:38.959Z,3.0
2022-09-03T06:15:39.685Z,2.9
2022-09-03T06:16:40.850Z,2.9
2022-09-03T06:17:39.309Z,2.4
2022-09-03T06:18:39.134Z,3.0
2022-09-03T06:19:38.988Z,3.5
2022-09-03T06:20:39.670Z,2.6
2022-09-03T06:21:40.606Z,3.1
2022-09-03T06:22:39.326Z,2.6
2022-09-03T06:23:39.166Z,2.8
2022-09-03T06:24:38.949Z,3.1
2022-09-03T06:25:39.665Z,2.7
2022-09-03T06:26:39.472Z,2.6
2022-09-03T06:27:39.293Z,3.6
2022-09-03T06:28:40.222Z,2.6
2022-09-03T06:29:39.006Z,3.1
2022-09-03T06:30:39.589Z,2.6
2022-09-03T06:31:39.696Z,2.3
2022-09-03T06:32:45.386Z,1.9
2022-09-03T06:33:39.439Z,2.7
2022-09-03T06:34:38.929Z,2.0
2022-09-03T06:35:42.891Z,2.5
2022-09-03T06:36:39.418Z,2.3
2022-09-03T06:37:39.616Z,2.8
2022-09-03T06:38:39.247Z,3.0
2022-09-03T06:39:38.961Z,2.5
2022-09-03T06:40:39.587Z,2.5
2022-09-03T06:41:39.384Z,2.9
2022-09-03T06:42:39.721Z,1.9
2022-09-03T06:43:39.970Z,2.2
2022-09-03T06:44:38.825Z,2.7
2022-09-03T06:45:39.655Z,2.5
2022-09-03T06:46:39.977Z,3.1
2022-09-03T06:47:39.219Z,2.9
2022-09-03T06:48:39.790Z,2.8
2022-09-03T06:49:38.854Z,2.5
2022-09-03T06:50:39.520Z,2.2
2022-09-03T06:51:39.547Z,2.7
2022-09-03T06:52:39.172Z,2.1
2022-09-03T06:53:40.658Z,2.6
2022-09-03T06:54:39.750Z,2.1
2022-09-03T06:55:39.588Z,2.8
2022-09-03T06:56:40.962Z,2.5
2022-09-03T06:57:39.167Z,3.2
2022-09-03T06:58:40.484Z,2.9
2022-09-03T06:59:39.696Z,3.4
2022-09-03T07:00:39.661Z,1.8
2022-09-03T07:01:40.198Z,2.6
2022-09-03T07:02:44.170Z,2.7
2022-09-03T07:03:39.719Z,3.1
2022-09-03T07:04:39.695Z,2.5
2022-09-03T07:05:39.554Z,2.9
2022-09-03T07:06:40.095Z,2.6
2022-09-03T07:07:39.149Z,1.9
2022-09-03T07:08:39.286Z,1.9
2022-09-03T07:09:39.706Z,2.5
2022-09-03T07:10:39.492Z,1.8
2022-09-03T07:11:39.537Z,2.8
2022-09-03T07:12:39.165Z,2.5
2022-09-03T07:13:39.859Z,2.2
2022-09-03T07:14:39.769Z,2.8
2022-09-03T07:15:39.523Z,2.2
2022-09-03T07:16:39.428Z,1.8
2022-09-03T07:17:39.167Z,2.2
2022-09-03T07:18:39.032Z,2.5
2022-09-03T07:19:39.667Z,3.0
2022-09-03T07:20:39.436Z,2.3
2022-09-03T07:21:39.717Z,2.4
2022-09-03T07:22:39.136Z,2.1
2022-09-03T07:23:39.286Z,2.1
2022-09-03T07:24:39.677Z,2.6
2022-09-03T07:25:39.483Z,2.5
2022-09-03T07:26:40.230Z,2.3
2022-09-03T07:27:39.144Z,2.5
2022-09-03T07:28:39.771Z,3.1
2022-09-03T07:29:39.632Z,2.3
2022-09-03T07:30:39.421Z,2.3
2022-09-03T07:31:40.342Z,2.1
2022-09-03T07:32:39.096Z,2.6
2022-09-03T07:33:38.933Z,2.4
2022-09-03T07:34:39.659Z,2.6
2022-09-03T07:35:39.438Z,2.8
2022-09-03T07:36:43.959Z,2.5
2022-09-03T07:37:42.547Z,3.4
2022-09-03T07:38:39.923Z,2.9
2022-09-03T07:39:39.720Z,3.5
2022-09-03T07:40:39.440Z,4.4
2022-09-03T07:41:40.288Z,4.4
2022-09-03T07:42:39.145Z,4.2
2022-09-03T07:43:42.801Z,4.8
2022-09-03T07:44:39.756Z,4.0
2022-09-03T07:45:39.652Z,5.7
2022-09-03T07:46:39.366Z,6.5
2022-09-03T07:47:45.721Z,6.3
2022-09-03T07:48:39.907Z,5.5
2022-09-03T07:49:39.773Z,5.4
2022-09-03T07:50:39.532Z,6.1
2022-09-03T07:51:39.438Z,6.3
2022-09-03T07:52:39.304Z,6.6
2022-09-03T07:53:38.983Z,7.0
2022-09-03T07:54:39.775Z,5.1
2022-09-03T07:55:39.706Z,6.1
2022-09-03T07:56:40.007Z,5.1
2022-09-03T07:57:39.264Z,5.7
2022-09-03T07:58:39.493Z,5.3
2022-09-03T07:59:38.884Z,6.5
2022-09-03T08:00:39.241Z,6.8
2022-09-03T08:01:41.598Z,6.1
2022-09-03T08:02:44.185Z,7.6
2022-09-03T08:03:42.631Z,7.9
2022-09-03T08:04:39.319Z,8.0
2022-09-03T08:05:39.148Z,8.2
2022-09-03T08:06:38.965Z,7.2
2022-09-03T08:07:39.828Z,7.8
2022-09-03T08:08:39.620Z,7.9
2022-09-03T08:09:39.405Z,8.0
2022-09-03T08:10:39.471Z,7.2
2022-09-03T08:11:40.962Z,7.7
2022-09-03T08:12:39.376Z,7.6
2022-09-03T08:13:44.313Z,7.4
2022-09-03T08:14:38.984Z,7.6
2022-09-03T08:15:39.659Z,7.4
2022-09-03T08:16:41.563Z,8.1
2022-09-03T08:17:42.421Z,7.9
2022-09-03T08:18:39.994Z,8.0
2022-09-03T08:19:39.373Z,7.2
2022-09-03T08:20:39.244Z,7.1
2022-09-03T08:21:39.460Z,5.8
2022-09-03T08:22:38.929Z,6.1
2022-09-03T08:23:40.852Z,5.0
2022-09-03T08:24:39.551Z,5.7
2022-09-03T08:25:39.257Z,6.0
2022-09-03T08:26:40.427Z,6.1
2022-09-03T08:27:39.019Z,5.9
2022-09-03T08:28:39.858Z,5.1
2022-09-03T08:29:39.399Z,4.4
2022-09-03T08:30:39.239Z,5.4
2022-09-03T08:31:39.154Z,5.0
2022-09-03T08:32:38.951Z,5.5
2022-09-03T08:33:40.848Z,5.3
2022-09-03T08:34:39.481Z,5.1
2022-09-03T08:35:39.310Z,5.1
2022-09-03T08:36:39.177Z,6.0
2022-09-03T08:37:39.037Z,5.1
2022-09-03T08:38:41.020Z,5.5
2022-09-03T08:39:39.538Z,6.1
2022-09-03T08:40:39.295Z,6.4
2022-09-03T08:41:49.494Z,5.2
2022-09-03T08:42:49.528Z,5.7
2022-09-03T08:43:57.496Z,5.4
2022-09-03T08:44:46.807Z,5.1
2022-09-03T08:45:39.848Z,3.9
2022-09-03T08:46:56.080Z,4.7
2022-09-03T08:47:47.025Z,4.7
2022-09-03T08:48:39.430Z,5.0
2022-09-03T08:49:51.105Z,5.5
2022-09-03T08:50:44.325Z,5.9
2022-09-03T08:51:40.316Z,6.1
2022-09-03T08:52:55.603Z,6.2
2022-09-03T08:53:48.796Z,6.4
2022-09-03T08:54:39.591Z,5.5
2022-09-03T08:55:52.468Z,5.8
2022-09-03T08:56:40.055Z,4.1
2022-09-03T08:57:49.060Z,6.1
2022-09-03T08:58:40.051Z,5.1
2022-09-03T08:59:39.925Z,5.0
2022-09-03T09:01:00.651Z,5.0
2022-09-03T09:01:46.590Z,4.7
2022-09-03T09:02:44.086Z,5.3
2022-09-03T09:03:57.929Z,5.8
2022-09-03T09:05:02.037Z,5.8
2022-09-03T09:05:46.997Z,5.3
2022-09-03T09:06:44.076Z,5.1
2022-09-03T09:07:43.894Z,4.4
2022-09-03T09:08:52.511Z,5.7
2022-09-03T09:09:46.458Z,4.9
2022-09-03T09:10:44.299Z,5.6
2022-09-03T09:11:44.118Z,5.6
2022-09-03T09:12:47.127Z,5.8
2022-09-03T09:13:55.475Z,6.0
2022-09-03T09:14:57.967Z,4.9
2022-09-03T09:15:53.495Z,6.1
2022-09-03T09:16:49.941Z,5.2
2022-09-03T09:18:01.510Z,5.3
2022-09-03T09:18:49.526Z,5.9
2022-09-03T09:19:44.596Z,6.3
2022-09-03T09:20:49.670Z,5.1
2022-09-03T09:21:41.022Z,6.9
2022-09-03T09:22:53.021Z,6.4
2022-09-03T09:23:48.546Z,6.0
2022-09-03T09:24:43.157Z,7.1
2022-09-03T09:25:44.441Z,6.3
2022-09-03T09:26:40.199Z,6.4
2022-09-03T09:27:44.031Z,6.8
2022-09-03T09:28:39.084Z,6.6
2022-09-03T09:29:40.293Z,7.0
2022-09-03T09:30:39.731Z,6.8
2022-09-03T09:31:40.100Z,6.5
2022-09-03T09:32:39.616Z,8.2
2022-09-03T09:33:39.422Z,7.3
2022-09-03T09:34:39.355Z,8.0
2022-09-03T09:35:39.157Z,8.4
2022-09-03T09:36:46.525Z,8.7
2022-09-03T09:37:55.333Z,7.6
2022-09-03T09:38:39.511Z,7.8
2022-09-03T09:39:40.218Z,8.5
2022-09-03T09:40:44.875Z,8.3
2022-09-03T09:41:38.919Z,7.7
2022-09-03T09:42:39.674Z,8.4
2022-09-03T09:43:39.567Z,8.1
2022-09-03T09:44:40.852Z,8.4
2022-09-03T09:45:40.573Z,7.4
2022-09-03T09:46:39.716Z,6.7
2022-09-03T09:47:39.336Z,6.7
2022-09-03T09:48:43.918Z,7.5
2022-09-03T09:49:58.344Z,7.5
2022-09-03T09:50:39.573Z,8.6
2022-09-03T09:51:39.408Z,7.1
2022-09-03T09:52:39.284Z,7.3
2022-09-03T09:53:40.326Z,6.9
2022-09-03T09:54:40.110Z,5.8
2022-09-03T09:55:48.597Z,6.8
2022-09-03T09:56:38.981Z,5.6
2022-09-03T09:57:39.724Z,8.3
2022-09-03T09:58:39.523Z,8.0
2022-09-03T09:59:39.362Z,6.3
2022-09-03T10:00:39.184Z,6.7
2022-09-03T10:01:40.051Z,5.9
2022-09-03T10:02:44.607Z,7.0
2022-09-03T10:03:40.732Z,6.8
2022-09-03T10:04:39.561Z,7.1
2022-09-03T10:05:39.372Z,6.8
2022-09-03T10:06:39.320Z,6.9
2022-09-03T10:07:39.967Z,6.9
2022-09-03T10:08:39.579Z,6.9
2022-09-03T10:09:39.379Z,6.2
2022-09-03T10:10:43.396Z,7.3
2022-09-03T10:11:41.778Z,6.0
2022-09-03T10:12:41.002Z,7.0
2022-09-03T10:13:41.782Z,5.8
2022-09-03T10:14:41.854Z,6.5
2022-09-03T10:15:50.475Z,6.6
2022-09-03T10:16:40.712Z,6.6
2022-09-03T10:17:55.457Z,6.9
2022-09-03T10:18:44.432Z,6.2
2022-09-03T10:20:01.551Z,7.2
2022-09-03T10:20:50.345Z,7.0
2022-09-03T10:21:49.529Z,7.7
2022-09-03T10:22:47.086Z,8.6
2022-09-03T10:23:55.181Z,6.9
2022-09-03T10:24:44.339Z,7.3
2022-09-03T10:25:44.090Z,8.2
2022-09-03T10:26:39.053Z,7.0
2022-09-03T10:27:38.890Z,6.0
2022-09-03T10:28:40.697Z,6.6
2022-09-03T10:29:40.012Z,6.8
2022-09-03T10:30:44.150Z,6.3
2022-09-03T10:31:49.523Z,6.4
2022-09-03T10:32:47.809Z,6.7
2022-09-03T10:33:44.707Z,6.0
2022-09-03T10:34:59.071Z,6.7
2022-09-03T10:35:44.181Z,6.6
2022-09-03T10:36:42.672Z,6.9
2022-09-03T10:37:43.477Z,7.5
2022-09-03T10:38:41.587Z,7.7
2022-09-03T10:39:57.554Z,8.1
2022-09-03T10:40:47.056Z,8.9
2022-09-03T10:41:43.221Z,8.5
2022-09-03T10:42:43.867Z,6.9
2022-09-03T10:43:44.580Z,7.4
2022-09-03T10:44:44.453Z,6.9
2022-09-03T10:45:44.245Z,8.1
2022-09-03T10:46:53.122Z,7.9
2022-09-03T10:47:55.538Z,8.9
2022-09-03T10:49:02.569Z,8.0
2022-09-03T10:49:49.603Z,8.6
2022-09-03T10:50:52.459Z,8.4
2022-09-03T10:51:41.088Z,7.6
2022-09-03T10:52:44.069Z,7.4
2022-09-03T10:53:50.094Z,8.8
2022-09-03T10:54:44.013Z,8.4
2022-09-03T10:55:56.971Z,7.6
2022-09-03T10:56:58.514Z,8.4
2022-09-03T10:57:47.040Z,8.0
2022-09-03T10:59:02.065Z,6.6
2022-09-03T10:59:47.042Z,7.4
2022-09-03T11:00:43.919Z,7.8
2022-09-03T11:01:56.107Z,8.5
2022-09-03T11:03:02.116Z,7.6
2022-09-03T11:03:43.069Z,8.5
2022-09-03T11:04:43.441Z,8.6
2022-09-03T11:05:55.553Z,7.6
2022-09-03T11:06:42.489Z,9.3
2022-09-03T11:07:40.344Z,8.5
2022-09-03T11:08:43.489Z,9.4
2022-09-03T11:09:44.479Z,9.3
2022-09-03T11:10:41.055Z,9.0
2022-09-03T11:11:46.650Z,8.7
2022-09-03T11:12:44.809Z,7.1
2022-09-03T11:13:41.790Z,8.4
2022-09-03T11:14:42.890Z,8.0
2022-09-03T11:15:47.096Z,7.1
2022-09-03T11:16:42.788Z,7.9
2022-09-03T11:17:41.780Z,8.4
2022-09-03T11:18:50.943Z,9.2
2022-09-03T11:19:49.630Z,7.0
2022-09-03T11:20:39.415Z,7.9
2022-09-03T11:21:40.211Z,7.2
2022-09-03T11:22:40.525Z,6.4
2022-09-03T11:23:43.757Z,7.4
2022-09-03T11:24:40.112Z,7.6
2022-09-03T11:25:44.374Z,7.3
2022-09-03T11:26:42.608Z,6.2
2022-09-03T11:27:46.573Z,7.0
2022-09-03T11:28:46.554Z,7.4
2022-09-03T11:29:50.074Z,7.1
2022-09-03T11:30:44.417Z,7.9
2022-09-03T11:31:50.083Z,6.6
2022-09-03T11:32:43.997Z,7.5
2022-09-03T11:33:43.041Z,6.3
2022-09-03T11:34:49.525Z,7.2
2022-09-03T11:35:40.531Z,6.4
2022-09-03T11:36:41.789Z,6.5
2022-09-03T11:37:44.008Z,7.1
2022-09-03T11:38:39.414Z,7.9
2022-09-03T11:39:39.425Z,8.1
2022-09-03T11:40:41.993Z,7.3
2022-09-03T11:41:38.946Z,6.5
2022-09-03T11:42:40.693Z,6.1
2022-09-03T11:43:39.616Z,6.4
2022-09-03T11:44:47.651Z,7.1
2022-09-03T11:45:39.364Z,6.8
2022-09-03T11:46:39.672Z,6.3
2022-09-03T11:47:40.972Z,6.3
2022-09-03T11:48:43.284Z,7.0
2022-09-03T11:49:43.665Z,6.2
2022-09-03T11:50:44.043Z,7.1
2022-09-03T11:51:39.638Z,6.0
2022-09-03T11:52:38.965Z,6.3
2022-09-03T11:53:39.062Z,6.7
2022-09-03T11:54:43.061Z,6.4
2022-09-03T11:55:52.658Z,6.1
2022-09-03T11:56:40.404Z,6.7
2022-09-03T11:57:40.375Z,6.4
2022-09-03T11:58:39.437Z,6.4
2022-09-03T11:59:39.755Z,6.8
2022-09-03T12:00:40.188Z,6.7
2022-09-03T12:01:43.479Z,5.7
2022-09-03T12:02:44.231Z,6.4
2022-09-03T12:03:43.873Z,5.4
2022-09-03T12:04:57.088Z,5.7
2022-09-03T12:05:44.470Z,6.1
2022-09-03T12:06:57.549Z,6.0
2022-09-03T12:07:57.497Z,6.1
2022-09-03T12:08:44.035Z,6.8
2022-09-03T12:09:46.568Z,7.3
2022-09-03T12:11:02.085Z,6.7
2022-09-03T12:11:44.418Z,7.7
2022-09-03T12:12:57.515Z,6.7
2022-09-03T12:13:49.563Z,6.1
2022-09-03T12:14:55.567Z,6.8
2022-09-03T12:15:59.111Z,5.9
2022-09-03T12:16:44.431Z,6.7
2022-09-03T12:17:57.528Z,6.3
2022-09-03T12:18:40.301Z,5.9
2022-09-03T12:19:43.821Z,6.6
2022-09-03T12:20:40.385Z,6.4
2022-09-03T12:21:39.633Z,5.9
2022-09-03T12:22:39.782Z,6.6
2022-09-03T12:23:43.533Z,6.6
2022-09-03T12:24:39.018Z,6.0
2022-09-03T12:25:44.809Z,6.1
2022-09-03T12:26:40.581Z,5.1
2022-09-03T12:27:41.780Z,6.1
2022-09-03T12:28:41.303Z,6.1
2022-09-03T12:29:43.915Z,5.3
2022-09-03T12:30:39.774Z,6.9
2022-09-03T12:31:43.818Z,6.1
2022-09-03T12:32:39.432Z,6.5
2022-09-03T12:33:42.214Z,6.0
2022-09-03T12:34:39.062Z,5.6
2022-09-03T12:36:00.131Z,6.3
2022-09-03T12:36:41.390Z,6.2
2022-09-03T12:38:08.404Z,6.9
2022-09-03T12:39:07.667Z,6.7
2022-09-03T12:40:07.668Z,6.2
2022-09-03T12:41:23.532Z,6.4
2022-09-03T12:41:44.580Z,6.4
2022-09-03T12:42:39.454Z,5.2
2022-09-03T12:43:39.831Z,6.2
2022-09-03T12:44:39.907Z,6.1
2022-09-03T12:46:10.958Z,5.1
2022-09-03T12:46:39.635Z,5.2
2022-09-03T12:47:39.708Z,6.5
2022-09-03T12:48:44.783Z,5.8
2022-09-03T12:49:40.749Z,6.7
2022-09-03T12:50:42.482Z,5.9
2022-09-03T12:51:51.306Z,6.1
2022-09-03T12:52:42.592Z,6.4
2022-09-03T12:53:39.786Z,5.1
2022-09-03T12:54:42.820Z,6.0
2022-09-03T12:55:42.597Z,5.4
2022-09-03T12:56:42.604Z,6.4
2022-09-03T12:57:44.004Z,5.7
2022-09-03T12:58:44.634Z,5.8
2022-09-03T12:59:39.670Z,5.4
2022-09-03T13:00:42.921Z,6.7
2022-09-03T13:01:44.106Z,6.4
2022-09-03T13:02:44.020Z,5.4
2022-09-03T13:03:57.999Z,5.5
2022-09-03T13:04:40.268Z,4.9
2022-09-03T13:05:46.860Z,6.0
2022-09-03T13:06:47.070Z,5.1
2022-09-03T13:07:39.583Z,4.3
2022-09-03T13:08:44.294Z,5.0
2022-09-03T13:09:40.047Z,5.9
2022-09-03T13:10:39.931Z,4.7
2022-09-03T13:11:39.591Z,5.8
2022-09-03T13:12:43.477Z,5.6
2022-09-03T13:13:44.180Z,5.4
2022-09-03T13:14:46.790Z,6.0
2022-09-03T13:15:39.065Z,5.5
2022-09-03T13:16:50.143Z,6.0
2022-09-03T13:17:47.071Z,5.2
2022-09-03T13:18:50.099Z,5.0
2022-09-03T13:19:49.565Z,5.1
2022-09-03T13:20:52.579Z,5.0
2022-09-03T13:21:44.555Z,5.9
2022-09-03T13:22:44.360Z,5.2
2022-09-03T13:23:47.095Z,5.2
2022-09-03T13:24:49.577Z,5.4
2022-09-03T13:25:43.866Z,4.7
2022-09-03T13:26:50.561Z,5.3
2022-09-03T13:27:44.396Z,5.8
2022-09-03T13:28:50.093Z,4.1
2022-09-03T13:29:44.064Z,5.3
2022-09-03T13:30:52.643Z,5.5
2022-09-03T13:31:44.549Z,5.1
2022-09-03T13:33:00.716Z,5.2
2022-09-03T13:33:42.612Z,5.3
2022-09-03T13:34:44.021Z,5.1
2022-09-03T13:35:57.001Z,5.1
2022-09-03T13:36:49.085Z,4.8
2022-09-03T13:37:42.759Z,5.6
2022-09-03T13:38:56.080Z,4.6
2022-09-03T13:39:47.145Z,5.5
2022-09-03T13:40:47.556Z,4.6
2022-09-03T13:41:42.389Z,5.5
2022-09-03T13:42:40.964Z,4.6
2022-09-03T13:43:59.099Z,5.5
2022-09-03T13:44:47.679Z,5.4
2022-09-03T13:45:42.673Z,4.8
2022-09-03T13:46:56.573Z,5.6